sensor_id;sensor_type;location;lat;lon;timestamp;temperature;humidity
32366;DHT22;18837;46.832;16.838;2023-04-06T00:00:56;5.90;75.50
32366;DHT22;18837;46.832;16.838;2023-04-06T00:03:22;5.90;75.50
32366;DHT22;18837;46.832;16.838;2023-04-06T00:05:48;5.80;75.70
32366;DHT22;18837;46.832;16.838;2023-04-06T00:08:17;5.80;75.50
32366;DHT22;18837;46.832;16.838;2023-04-06T00:10:43;5.80;75.80
32366;DHT22;18837;46.832;16.838;2023-04-06T00:13:09;5.80;75.50
32366;DHT22;18837;46.832;16.838;2023-04-06T00:15:34;5.80;75.80
32366;DHT22;18837;46.832;16.838;2023-04-06T00:18:01;5.80;75.80
32366;DHT22;18837;46.832;16.838;2023-04-06T00:20:27;5.80;75.60
32366;DHT22;18837;46.832;16.838;2023-04-06T00:23:05;5.80;75.60
32366;DHT22;18837;46.832;16.838;2023-04-06T00:25:50;5.80;76.20
32366;DHT22;18837;46.832;16.838;2023-04-06T00:28:16;5.80;76.30
32366;DHT22;18837;46.832;16.838;2023-04-06T00:30:42;5.80;75.30
32366;DHT22;18837;46.832;16.838;2023-04-06T00:33:08;5.80;75.70
32366;DHT22;18837;46.832;16.838;2023-04-06T00:35:34;5.70;75.50
32366;DHT22;18837;46.832;16.838;2023-04-06T00:38:00;5.80;75.60
32366;DHT22;18837;46.832;16.838;2023-04-06T00:40:26;5.70;75.50
32366;DHT22;18837;46.832;16.838;2023-04-06T00:42:55;5.80;75.70
32366;DHT22;18837;46.832;16.838;2023-04-06T00:45:21;5.70;75.90
32366;DHT22;18837;46.832;16.838;2023-04-06T00:47:47;5.70;75.30
32366;DHT22;18837;46.832;16.838;2023-04-06T00:50:12;5.70;75.40
32366;DHT22;18837;46.832;16.838;2023-04-06T00:52:38;5.70;75.50
32366;DHT22;18837;46.832;16.838;2023-04-06T00:55:04;5.70;75.40
32366;DHT22;18837;46.832;16.838;2023-04-06T00:57:56;5.70;75.70
32366;DHT22;18837;46.832;16.838;2023-04-06T01:00:35;5.70;77.00
32366;DHT22;18837;46.832;16.838;2023-04-06T01:03:00;5.70;76.10
32366;DHT22;18837;46.832;16.838;2023-04-06T01:05:26;5.70;75.70
32366;DHT22;18837;46.832;16.838;2023-04-06T01:07:52;5.60;75.50
32366;DHT22;18837;46.832;16.838;2023-04-06T01:10:25;5.60;75.50
32366;DHT22;18837;46.832;16.838;2023-04-06T01:12:51;5.70;76.10
32366;DHT22;18837;46.832;16.838;2023-04-06T01:15:36;5.60;75.90
32366;DHT22;18837;46.832;16.838;2023-04-06T01:18:04;5.70;76.00
32366;DHT22;18837;46.832;16.838;2023-04-06T01:20:32;5.60;74.80
32366;DHT22;18837;46.832;16.838;2023-04-06T01:22:57;5.60;75.60
32366;DHT22;18837;46.832;16.838;2023-04-06T01:25:23;5.60;75.10
32366;DHT22;18837;46.832;16.838;2023-04-06T01:27:50;5.60;75.20
32366;DHT22;18837;46.832;16.838;2023-04-06T01:30:16;5.60;75.60
32366;DHT22;18837;46.832;16.838;2023-04-06T01:33:16;5.60;75.30
32366;DHT22;18837;46.832;16.838;2023-04-06T01:35:54;5.60;77.30
32366;DHT22;18837;46.832;16.838;2023-04-06T01:38:20;5.60;76.10
32366;DHT22;18837;46.832;16.838;2023-04-06T01:40:46;5.60;75.20
32366;DHT22;18837;46.832;16.838;2023-04-06T01:43:12;5.60;75.20
32366;DHT22;18837;46.832;16.838;2023-04-06T01:45:38;5.60;75.20
32366;DHT22;18837;46.832;16.838;2023-04-06T01:48:03;5.60;75.40
32366;DHT22;18837;46.832;16.838;2023-04-06T01:50:32;5.50;75.50
32366;DHT22;18837;46.832;16.838;2023-04-06T01:52:58;5.50;75.70
32366;DHT22;18837;46.832;16.838;2023-04-06T01:55:24;5.50;75.20
32366;DHT22;18837;46.832;16.838;2023-04-06T01:57:50;5.50;75.10
32366;DHT22;18837;46.832;16.838;2023-04-06T02:00:16;5.50;75.40
32366;DHT22;18837;46.832;16.838;2023-04-06T02:02:42;5.50;75.80
32366;DHT22;18837;46.832;16.838;2023-04-06T02:05:20;5.50;75.30
32366;DHT22;18837;46.832;16.838;2023-04-06T02:08:08;5.50;76.10
32366;DHT22;18837;46.832;16.838;2023-04-06T02:10:39;5.50;76.70
32366;DHT22;18837;46.832;16.838;2023-04-06T02:13:05;5.50;75.50
32366;DHT22;18837;46.832;16.838;2023-04-06T02:15:31;5.50;75.20
32366;DHT22;18837;46.832;16.838;2023-04-06T02:17:57;5.40;75.60
32366;DHT22;18837;46.832;16.838;2023-04-06T02:20:23;5.40;75.40
32366;DHT22;18837;46.832;16.838;2023-04-06T02:22:48;5.40;75.40
32366;DHT22;18837;46.832;16.838;2023-04-06T02:25:26;5.40;75.30
32366;DHT22;18837;46.832;16.838;2023-04-06T02:27:52;5.40;75.60
32366;DHT22;18837;46.832;16.838;2023-04-06T02:30:18;5.40;75.80
32366;DHT22;18837;46.832;16.838;2023-04-06T02:32:43;5.40;75.60
32366;DHT22;18837;46.832;16.838;2023-04-06T02:35:09;5.40;75.60
32366;DHT22;18837;46.832;16.838;2023-04-06T02:37:35;5.40;75.30
32366;DHT22;18837;46.832;16.838;2023-04-06T02:40:07;5.40;75.20
32366;DHT22;18837;46.832;16.838;2023-04-06T02:42:45;5.30;76.20
32366;DHT22;18837;46.832;16.838;2023-04-06T02:45:14;5.40;75.90
32366;DHT22;18837;46.832;16.838;2023-04-06T02:47:41;5.40;75.90
32366;DHT22;18837;46.832;16.838;2023-04-06T02:50:07;5.30;75.40
32366;DHT22;18837;46.832;16.838;2023-04-06T02:52:33;5.30;75.90
32366;DHT22;18837;46.832;16.838;2023-04-06T02:54:59;5.30;75.20
32366;DHT22;18837;46.832;16.838;2023-04-06T02:57:25;5.30;75.30
32366;DHT22;18837;46.832;16.838;2023-04-06T02:59:56;5.30;75.30
32366;DHT22;18837;46.832;16.838;2023-04-06T03:02:22;5.30;75.50
32366;DHT22;18837;46.832;16.838;2023-04-06T03:04:47;5.30;76.10
32366;DHT22;18837;46.832;16.838;2023-04-06T03:07:13;5.30;75.40
32366;DHT22;18837;46.832;16.838;2023-04-06T03:09:40;5.30;75.20
32366;DHT22;18837;46.832;16.838;2023-04-06T03:12:06;5.30;75.60
32366;DHT22;18837;46.832;16.838;2023-04-06T03:14:54;5.30;75.40
32366;DHT22;18837;46.832;16.838;2023-04-06T03:17:44;5.20;77.00
32366;DHT22;18837;46.832;16.838;2023-04-06T03:20:22;5.20;77.10
32366;DHT22;18837;46.832;16.838;2023-04-06T03:22:48;5.30;75.60
32366;DHT22;18837;46.832;16.838;2023-04-06T03:25:14;5.20;75.80
32366;DHT22;18837;46.832;16.838;2023-04-06T03:27:40;5.30;75.80
32366;DHT22;18837;46.832;16.838;2023-04-06T03:30:08;5.20;75.30
32366;DHT22;18837;46.832;16.838;2023-04-06T03:32:34;5.20;76.00
32366;DHT22;18837;46.832;16.838;2023-04-06T03:35:06;5.20;75.80
32366;DHT22;18837;46.832;16.838;2023-04-06T03:37:32;5.20;75.80
32366;DHT22;18837;46.832;16.838;2023-04-06T03:39:58;5.20;75.50
32366;DHT22;18837;46.832;16.838;2023-04-06T03:42:24;5.20;75.40
32366;DHT22;18837;46.832;16.838;2023-04-06T03:44:50;5.20;75.50
32366;DHT22;18837;46.832;16.838;2023-04-06T03:47:16;5.20;75.60
32366;DHT22;18837;46.832;16.838;2023-04-06T03:50:10;5.20;75.80
32366;DHT22;18837;46.832;16.838;2023-04-06T03:53:00;5.10;76.70
32366;DHT22;18837;46.832;16.838;2023-04-06T03:55:28;5.10;76.70
32366;DHT22;18837;46.832;16.838;2023-04-06T03:57:54;5.10;75.30
32366;DHT22;18837;46.832;16.838;2023-04-06T04:00:20;5.10;75.20
32366;DHT22;18837;46.832;16.838;2023-04-06T04:02:45;5.10;75.20
32366;DHT22;18837;46.832;16.838;2023-04-06T04:05:11;5.10;75.00
32366;DHT22;18837;46.832;16.838;2023-04-06T04:07:37;5.10;75.20
32366;DHT22;18837;46.832;16.838;2023-04-06T04:10:04;5.10;75.50
32366;DHT22;18837;46.832;16.838;2023-04-06T04:12:30;5.10;75.30
32366;DHT22;18837;46.832;16.838;2023-04-06T04:14:55;5.10;74.90
32366;DHT22;18837;46.832;16.838;2023-04-06T04:17:22;5.00;75.30
32366;DHT22;18837;46.832;16.838;2023-04-06T04:19:47;5.10;75.40
32366;DHT22;18837;46.832;16.838;2023-04-06T04:22:13;5.10;75.10
32366;DHT22;18837;46.832;16.838;2023-04-06T04:28:15;5.10;77.20
32366;DHT22;18837;46.832;16.838;2023-04-06T04:30:40;5.10;76.90
32366;DHT22;18837;46.832;16.838;2023-04-06T04:33:06;5.10;75.20
32366;DHT22;18837;46.832;16.838;2023-04-06T04:35:32;5.10;75.10
32366;DHT22;18837;46.832;16.838;2023-04-06T04:37:58;5.00;75.70
32366;DHT22;18837;46.832;16.838;2023-04-06T04:40:24;5.00;75.60
32366;DHT22;18837;46.832;16.838;2023-04-06T04:43:03;5.00;76.10
32366;DHT22;18837;46.832;16.838;2023-04-06T04:45:28;5.00;76.00
32366;DHT22;18837;46.832;16.838;2023-04-06T04:47:54;5.00;75.50
32366;DHT22;18837;46.832;16.838;2023-04-06T04:50:20;5.00;75.50
32366;DHT22;18837;46.832;16.838;2023-04-06T04:52:46;5.00;75.20
32366;DHT22;18837;46.832;16.838;2023-04-06T04:55:12;5.00;75.20
32366;DHT22;18837;46.832;16.838;2023-04-06T04:57:38;5.00;75.80
32366;DHT22;18837;46.832;16.838;2023-04-06T05:00:41;5.00;75.90
32366;DHT22;18837;46.832;16.838;2023-04-06T05:03:26;4.90;77.00
32366;DHT22;18837;46.832;16.838;2023-04-06T05:05:52;5.00;75.90
32366;DHT22;18837;46.832;16.838;2023-04-06T05:08:18;5.00;75.40
32366;DHT22;18837;46.832;16.838;2023-04-06T05:10:44;5.00;75.10
32366;DHT22;18837;46.832;16.838;2023-04-06T05:13:11;5.00;75.20
32366;DHT22;18837;46.832;16.838;2023-04-06T05:15:37;4.90;75.70
32366;DHT22;18837;46.832;16.838;2023-04-06T05:18:09;4.90;75.80
32366;DHT22;18837;46.832;16.838;2023-04-06T05:20:35;4.90;76.50
32366;DHT22;18837;46.832;16.838;2023-04-06T05:23:01;4.90;75.50
32366;DHT22;18837;46.832;16.838;2023-04-06T05:25:28;4.90;75.50
32366;DHT22;18837;46.832;16.838;2023-04-06T05:27:54;4.90;75.80
32366;DHT22;18837;46.832;16.838;2023-04-06T05:30:20;4.90;75.60
32366;DHT22;18837;46.832;16.838;2023-04-06T05:32:55;4.90;75.60
32366;DHT22;18837;46.832;16.838;2023-04-06T05:35:21;4.90;75.80
32366;DHT22;18837;46.832;16.838;2023-04-06T05:37:47;4.90;75.50
32366;DHT22;18837;46.832;16.838;2023-04-06T05:40:13;4.90;75.80
32366;DHT22;18837;46.832;16.838;2023-04-06T05:42:39;4.90;75.80
32366;DHT22;18837;46.832;16.838;2023-04-06T05:45:12;4.90;75.80
32366;DHT22;18837;46.832;16.838;2023-04-06T05:48:08;4.90;76.90
32366;DHT22;18837;46.832;16.838;2023-04-06T05:53:47;5.00;78.20
32366;DHT22;18837;46.832;16.838;2023-04-06T05:56:13;5.00;76.50
32366;DHT22;18837;46.832;16.838;2023-04-06T05:58:39;5.00;76.70
32366;DHT22;18837;46.832;16.838;2023-04-06T06:01:05;5.00;76.40
32366;DHT22;18837;46.832;16.838;2023-04-06T06:03:31;5.00;76.40
32366;DHT22;18837;46.832;16.838;2023-04-06T06:06:04;5.00;76.30
32366;DHT22;18837;46.832;16.838;2023-04-06T06:08:33;5.00;77.00
32366;DHT22;18837;46.832;16.838;2023-04-06T06:10:59;5.00;77.40
32366;DHT22;18837;46.832;16.838;2023-04-06T06:13:25;5.00;76.80
32366;DHT22;18837;46.832;16.838;2023-04-06T06:15:51;5.10;76.60
32366;DHT22;18837;46.832;16.838;2023-04-06T06:18:17;5.10;76.90
32366;DHT22;18837;46.832;16.838;2023-04-06T06:20:43;5.00;76.40
32366;DHT22;18837;46.832;16.838;2023-04-06T06:23:29;5.10;76.50
32366;DHT22;18837;46.832;16.838;2023-04-06T06:26:24;5.10;78.00
32366;DHT22;18837;46.832;16.838;2023-04-06T06:28:50;5.10;77.30
32366;DHT22;18837;46.832;16.838;2023-04-06T06:31:16;5.10;76.80
32366;DHT22;18837;46.832;16.838;2023-04-06T06:33:42;5.20;77.20
32366;DHT22;18837;46.832;16.838;2023-04-06T06:36:08;5.20;76.90
32366;DHT22;18837;46.832;16.838;2023-04-06T06:38:34;5.20;77.10
32366;DHT22;18837;46.832;16.838;2023-04-06T06:41:19;5.20;77.40
32366;DHT22;18837;46.832;16.838;2023-04-06T06:43:45;4.90;78.20
32366;DHT22;18837;46.832;16.838;2023-04-06T06:46:11;5.20;77.80
32366;DHT22;18837;46.832;16.838;2023-04-06T06:48:37;5.20;77.10
32366;DHT22;18837;46.832;16.838;2023-04-06T06:51:03;5.30;77.40
32366;DHT22;18837;46.832;16.838;2023-04-06T06:53:29;5.30;77.60
32366;DHT22;18837;46.832;16.838;2023-04-06T06:55:55;5.30;77.30
32366;DHT22;18837;46.832;16.838;2023-04-06T07:01:52;5.30;78.70
32366;DHT22;18837;46.832;16.838;2023-04-06T07:04:18;5.30;77.80
32366;DHT22;18837;46.832;16.838;2023-04-06T07:06:44;5.40;78.00
32366;DHT22;18837;46.832;16.838;2023-04-06T07:09:10;5.40;77.40
32366;DHT22;18837;46.832;16.838;2023-04-06T07:11:36;5.40;77.50
32366;DHT22;18837;46.832;16.838;2023-04-06T07:14:02;5.40;77.20
32366;DHT22;18837;46.832;16.838;2023-04-06T07:16:43;5.40;77.40
32366;DHT22;18837;46.832;16.838;2023-04-06T07:19:10;5.40;78.60
32366;DHT22;18837;46.832;16.838;2023-04-06T07:21:39;5.50;78.10
32366;DHT22;18837;46.832;16.838;2023-04-06T07:24:05;5.50;77.60
32366;DHT22;18837;46.832;16.838;2023-04-06T07:26:31;5.50;77.40
32366;DHT22;18837;46.832;16.838;2023-04-06T07:28:57;5.50;77.00
32366;DHT22;18837;46.832;16.838;2023-04-06T07:31:48;5.60;77.80
32366;DHT22;18837;46.832;16.838;2023-04-06T07:37:49;5.60;78.70
32366;DHT22;18837;46.832;16.838;2023-04-06T07:40:15;5.70;76.90
32366;DHT22;18837;46.832;16.838;2023-04-06T07:42:41;5.70;77.50
32366;DHT22;18837;46.832;16.838;2023-04-06T07:45:07;5.70;76.90
32366;DHT22;18837;46.832;16.838;2023-04-06T07:47:33;5.70;77.10
32366;DHT22;18837;46.832;16.838;2023-04-06T07:49:59;5.80;76.30
32366;DHT22;18837;46.832;16.838;2023-04-06T07:52:34;5.80;75.80
32366;DHT22;18837;46.832;16.838;2023-04-06T07:55:00;5.80;76.70
32366;DHT22;18837;46.832;16.838;2023-04-06T07:57:28;5.90;76.50
32366;DHT22;18837;46.832;16.838;2023-04-06T07:59:54;5.90;77.50
32366;DHT22;18837;46.832;16.838;2023-04-06T08:02:20;5.90;76.10
32366;DHT22;18837;46.832;16.838;2023-04-06T08:04:45;6.00;76.20
32366;DHT22;18837;46.832;16.838;2023-04-06T08:07:30;6.00;76.40
32366;DHT22;18837;46.832;16.838;2023-04-06T08:10:16;6.00;76.80
32366;DHT22;18837;46.832;16.838;2023-04-06T08:12:41;6.00;77.60
32366;DHT22;18837;46.832;16.838;2023-04-06T08:15:07;6.10;75.90
32366;DHT22;18837;46.832;16.838;2023-04-06T08:17:33;6.10;76.30
32366;DHT22;18837;46.832;16.838;2023-04-06T08:20:00;6.10;76.10
32366;DHT22;18837;46.832;16.838;2023-04-06T08:22:28;6.10;76.00
32366;DHT22;18837;46.832;16.838;2023-04-06T08:25:10;6.10;75.80
32366;DHT22;18837;46.832;16.838;2023-04-06T08:27:36;6.20;76.30
32366;DHT22;18837;46.832;16.838;2023-04-06T08:30:01;6.20;76.40
32366;DHT22;18837;46.832;16.838;2023-04-06T08:32:27;6.20;75.90
32366;DHT22;18837;46.832;16.838;2023-04-06T08:34:54;6.30;76.10
32366;DHT22;18837;46.832;16.838;2023-04-06T08:37:21;6.30;75.60
32366;DHT22;18837;46.832;16.838;2023-04-06T08:39:50;6.30;75.20
32366;DHT22;18837;46.832;16.838;2023-04-06T08:45:56;6.40;77.60
32366;DHT22;18837;46.832;16.838;2023-04-06T08:48:27;6.40;75.60
32366;DHT22;18837;46.832;16.838;2023-04-06T08:50:55;6.40;76.40
32366;DHT22;18837;46.832;16.838;2023-04-06T08:53:21;6.40;75.70
32366;DHT22;18837;46.832;16.838;2023-04-06T08:55:47;6.40;75.40
32366;DHT22;18837;46.832;16.838;2023-04-06T08:58:16;6.40;75.50
32366;DHT22;18837;46.832;16.838;2023-04-06T09:01:08;6.50;76.30
32366;DHT22;18837;46.832;16.838;2023-04-06T09:03:41;6.50;76.60
32366;DHT22;18837;46.832;16.838;2023-04-06T09:06:08;6.50;75.00
32366;DHT22;18837;46.832;16.838;2023-04-06T09:08:44;6.50;74.70
32366;DHT22;18837;46.832;16.838;2023-04-06T10:30:44;7.50;72.80
32366;DHT22;18837;46.832;16.838;2023-04-06T10:33:18;7.60;72.00
32366;DHT22;18837;46.832;16.838;2023-04-06T10:35:44;7.60;72.90
32366;DHT22;18837;46.832;16.838;2023-04-06T10:38:11;7.60;71.20
32366;DHT22;18837;46.832;16.838;2023-04-06T10:40:41;7.70;71.80
32366;DHT22;18837;46.832;16.838;2023-04-06T11:41:33;8.40;69.30
32366;DHT22;18837;46.832;16.838;2023-04-06T11:44:01;8.30;68.20
32366;DHT22;18837;46.832;16.838;2023-04-06T11:46:28;8.40;67.90
32366;DHT22;18837;46.832;16.838;2023-04-06T11:48:58;8.40;67.30
32366;DHT22;18837;46.832;16.838;2023-04-06T11:51:25;8.30;67.00
32366;DHT22;18837;46.832;16.838;2023-04-06T11:53:57;8.40;67.10
32366;DHT22;18837;46.832;16.838;2023-04-06T11:56:28;8.40;67.10
32366;DHT22;18837;46.832;16.838;2023-04-06T11:58:58;8.40;68.20
32366;DHT22;18837;46.832;16.838;2023-04-06T12:01:26;8.40;67.70
32366;DHT22;18837;46.832;16.838;2023-04-06T12:03:52;8.40;67.00
32366;DHT22;18837;46.832;16.838;2023-04-06T12:06:18;8.40;67.60
32366;DHT22;18837;46.832;16.838;2023-04-06T12:09:08;8.40;68.60
32366;DHT22;18837;46.832;16.838;2023-04-06T12:11:47;8.50;69.20
32366;DHT22;18837;46.832;16.838;2023-04-06T12:14:13;8.50;68.60
32366;DHT22;18837;46.832;16.838;2023-04-06T12:16:39;8.50;67.80
32366;DHT22;18837;46.832;16.838;2023-04-06T12:19:05;8.50;67.50
32366;DHT22;18837;46.832;16.838;2023-04-06T12:21:31;8.50;66.70
32366;DHT22;18837;46.832;16.838;2023-04-06T12:23:58;8.50;66.40
32366;DHT22;18837;46.832;16.838;2023-04-06T12:26:33;8.50;67.00
32366;DHT22;18837;46.832;16.838;2023-04-06T12:29:00;8.50;68.20
32366;DHT22;18837;46.832;16.838;2023-04-06T12:31:32;8.50;67.80
32366;DHT22;18837;46.832;16.838;2023-04-06T12:34:00;8.50;67.80
32366;DHT22;18837;46.832;16.838;2023-04-06T12:36:27;8.60;68.00
32366;DHT22;18837;46.832;16.838;2023-04-06T12:38:53;8.60;67.40
32366;DHT22;18837;46.832;16.838;2023-04-06T12:41:19;8.60;67.00
32366;DHT22;18837;46.832;16.838;2023-04-06T12:47:06;8.60;68.80
32366;DHT22;18837;46.832;16.838;2023-04-06T12:49:33;8.70;68.50
32366;DHT22;18837;46.832;16.838;2023-04-06T12:51:58;8.70;68.30
32366;DHT22;18837;46.832;16.838;2023-04-06T12:54:24;8.70;68.00
32366;DHT22;18837;46.832;16.838;2023-04-06T12:56:52;8.70;67.40
32366;DHT22;18837;46.832;16.838;2023-04-06T12:59:18;8.80;68.90
32366;DHT22;18837;46.832;16.838;2023-04-06T13:01:49;8.80;69.00
32366;DHT22;18837;46.832;16.838;2023-04-06T13:04:14;8.80;68.00
32366;DHT22;18837;46.832;16.838;2023-04-06T13:06:40;8.80;67.70
32366;DHT22;18837;46.832;16.838;2023-04-06T13:09:06;8.80;68.80
32366;DHT22;18837;46.832;16.838;2023-04-06T13:11:33;8.80;68.90
32366;DHT22;18837;46.832;16.838;2023-04-06T13:13:59;8.80;68.00
32366;DHT22;18837;46.832;16.838;2023-04-06T13:16:47;8.90;67.90
32366;DHT22;18837;46.832;16.838;2023-04-06T13:19:13;8.90;69.30
32366;DHT22;18837;46.832;16.838;2023-04-06T13:21:40;8.90;68.20
32366;DHT22;18837;46.832;16.838;2023-04-06T13:24:06;8.90;68.00
32366;DHT22;18837;46.832;16.838;2023-04-06T13:26:32;8.90;67.90
32366;DHT22;18837;46.832;16.838;2023-04-06T13:28:59;8.90;68.40
32366;DHT22;18837;46.832;16.838;2023-04-06T13:31:26;8.90;68.00
32366;DHT22;18837;46.832;16.838;2023-04-06T13:33:51;8.90;66.80
32366;DHT22;18837;46.832;16.838;2023-04-06T13:36:23;8.90;67.30
32366;DHT22;18837;46.832;16.838;2023-04-06T13:38:49;8.90;68.70
32366;DHT22;18837;46.832;16.838;2023-04-06T13:41:22;8.90;67.70
32366;DHT22;18837;46.832;16.838;2023-04-06T13:43:48;8.90;67.20
32366;DHT22;18837;46.832;16.838;2023-04-06T13:46:14;8.90;67.60
32366;DHT22;18837;46.832;16.838;2023-04-06T13:48:40;8.90;68.00
32366;DHT22;18837;46.832;16.838;2023-04-06T13:51:26;9.00;67.60
32366;DHT22;18837;46.832;16.838;2023-04-06T13:54:11;9.00;69.30
32366;DHT22;18837;46.832;16.838;2023-04-06T13:56:38;9.00;68.50
32366;DHT22;18837;46.832;16.838;2023-04-06T13:59:03;9.10;67.70
32366;DHT22;18837;46.832;16.838;2023-04-06T14:01:29;9.10;69.10
32366;DHT22;18837;46.832;16.838;2023-04-06T14:03:55;9.10;68.00
32366;DHT22;18837;46.832;16.838;2023-04-06T14:06:21;9.10;67.60
32366;DHT22;18837;46.832;16.838;2023-04-06T14:08:47;9.20;66.60
32366;DHT22;18837;46.832;16.838;2023-04-06T14:11:18;9.20;66.50
32366;DHT22;18837;46.832;16.838;2023-04-06T14:13:43;9.20;67.00
32366;DHT22;18837;46.832;16.838;2023-04-06T14:16:09;9.20;66.60
32366;DHT22;18837;46.832;16.838;2023-04-06T14:18:36;9.20;67.50
32366;DHT22;18837;46.832;16.838;2023-04-06T14:21:02;9.20;67.60
32366;DHT22;18837;46.832;16.838;2023-04-06T14:23:28;9.20;67.10
32366;DHT22;18837;46.832;16.838;2023-04-06T14:26:21;9.20;67.00
32366;DHT22;18837;46.832;16.838;2023-04-06T14:33:54;9.20;65.80
32366;DHT22;18837;46.832;16.838;2023-04-06T14:36:21;9.20;66.90
32366;DHT22;18837;46.832;16.838;2023-04-06T14:38:48;9.20;66.60
32366;DHT22;18837;46.832;16.838;2023-04-06T14:41:18;9.30;65.70
32366;DHT22;18837;46.832;16.838;2023-04-06T14:43:47;9.30;64.70
32366;DHT22;18837;46.832;16.838;2023-04-06T14:46:18;9.30;64.70
32366;DHT22;18837;46.832;16.838;2023-04-06T14:48:46;9.30;64.50
32366;DHT22;18837;46.832;16.838;2023-04-06T14:51:13;9.30;64.80
32366;DHT22;18837;46.832;16.838;2023-04-06T14:53:38;9.30;64.70
32366;DHT22;18837;46.832;16.838;2023-04-06T14:56:05;9.40;65.80
32366;DHT22;18837;46.832;16.838;2023-04-06T14:58:31;9.40;66.40
32366;DHT22;18837;46.832;16.838;2023-04-06T15:00:58;9.30;66.30
32366;DHT22;18837;46.832;16.838;2023-04-06T15:03:25;9.30;66.50
32366;DHT22;18837;46.832;16.838;2023-04-06T15:05:54;9.30;66.90
32366;DHT22;18837;46.832;16.838;2023-04-06T15:08:20;9.30;67.10
32366;DHT22;18837;46.832;16.838;2023-04-06T15:10:47;9.30;67.10
32366;DHT22;18837;46.832;16.838;2023-04-06T15:13:13;9.40;67.20
32366;DHT22;18837;46.832;16.838;2023-04-06T15:15:40;9.40;67.10
32366;DHT22;18837;46.832;16.838;2023-04-06T15:18:06;9.40;66.80
32366;DHT22;18837;46.832;16.838;2023-04-06T15:20:33;9.40;67.10
32366;DHT22;18837;46.832;16.838;2023-04-06T15:23:01;9.40;67.00
32366;DHT22;18837;46.832;16.838;2023-04-06T15:25:27;9.40;66.40
32366;DHT22;18837;46.832;16.838;2023-04-06T15:27:56;9.40;66.70
32366;DHT22;18837;46.832;16.838;2023-04-06T15:30:22;9.40;66.40
32366;DHT22;18837;46.832;16.838;2023-04-06T15:33:07;9.40;66.10
32366;DHT22;18837;46.832;16.838;2023-04-06T15:35:46;9.40;65.80
32366;DHT22;18837;46.832;16.838;2023-04-06T15:38:20;9.30;66.00
32366;DHT22;18837;46.832;16.838;2023-04-06T15:40:47;9.30;66.00
32366;DHT22;18837;46.832;16.838;2023-04-06T15:43:14;9.30;65.60
32366;DHT22;18837;46.832;16.838;2023-04-06T15:45:41;9.30;66.10
32366;DHT22;18837;46.832;16.838;2023-04-06T15:48:07;9.30;65.70
32366;DHT22;18837;46.832;16.838;2023-04-06T15:50:34;9.30;66.10
32366;DHT22;18837;46.832;16.838;2023-04-06T15:53:00;9.30;66.10
32366;DHT22;18837;46.832;16.838;2023-04-06T15:55:25;9.30;66.10
32366;DHT22;18837;46.832;16.838;2023-04-06T15:57:51;9.30;66.10
32366;DHT22;18837;46.832;16.838;2023-04-06T16:00:17;9.30;65.40
32366;DHT22;18837;46.832;16.838;2023-04-06T16:02:43;9.30;65.20
32366;DHT22;18837;46.832;16.838;2023-04-06T16:05:09;9.20;64.50
32366;DHT22;18837;46.832;16.838;2023-04-06T16:07:35;9.30;64.80
32366;DHT22;18837;46.832;16.838;2023-04-06T16:10:02;9.20;65.40
32366;DHT22;18837;46.832;16.838;2023-04-06T16:12:30;9.30;64.40
32366;DHT22;18837;46.832;16.838;2023-04-06T16:15:07;9.20;64.70
32366;DHT22;18837;46.832;16.838;2023-04-06T16:17:33;9.30;65.20
32366;DHT22;18837;46.832;16.838;2023-04-06T16:19:59;9.20;64.30
32366;DHT22;18837;46.832;16.838;2023-04-06T16:22:25;9.20;64.30
32366;DHT22;18837;46.832;16.838;2023-04-06T16:24:53;9.20;63.80
32366;DHT22;18837;46.832;16.838;2023-04-06T16:27:18;9.10;63.60
32366;DHT22;18837;46.832;16.838;2023-04-06T16:29:44;9.20;63.50
32366;DHT22;18837;46.832;16.838;2023-04-06T16:32:10;10.10;65.00
32366;DHT22;18837;46.832;16.838;2023-04-06T16:34:36;9.20;64.70
32366;DHT22;18837;46.832;16.838;2023-04-06T16:37:02;9.10;65.20
32366;DHT22;18837;46.832;16.838;2023-04-06T16:39:28;9.10;65.00
32366;DHT22;18837;46.832;16.838;2023-04-06T16:41:54;9.10;64.50
32366;DHT22;18837;46.832;16.838;2023-04-06T16:44:36;9.10;64.10
32366;DHT22;18837;46.832;16.838;2023-04-06T16:47:22;9.10;64.00
32366;DHT22;18837;46.832;16.838;2023-04-06T16:49:48;9.00;64.80
32366;DHT22;18837;46.832;16.838;2023-04-06T16:52:14;9.00;64.10
32366;DHT22;18837;46.832;16.838;2023-04-06T16:54:40;9.00;64.10
32366;DHT22;18837;46.832;16.838;2023-04-06T16:57:05;9.00;64.00
32366;DHT22;18837;46.832;16.838;2023-04-06T16:59:31;9.00;63.70
32366;DHT22;18837;46.832;16.838;2023-04-06T17:01:57;9.00;64.50
32366;DHT22;18837;46.832;16.838;2023-04-06T17:04:23;8.90;63.50
32366;DHT22;18837;46.832;16.838;2023-04-06T17:06:49;8.90;64.80
32366;DHT22;18837;46.832;16.838;2023-04-06T17:09:14;8.90;65.50
32366;DHT22;18837;46.832;16.838;2023-04-06T17:11:41;8.90;65.50
32366;DHT22;18837;46.832;16.838;2023-04-06T17:14:08;8.90;65.30
32366;DHT22;18837;46.832;16.838;2023-04-06T17:16:34;8.90;65.20
32366;DHT22;18837;46.832;16.838;2023-04-06T17:19:09;8.80;65.00
32366;DHT22;18837;46.832;16.838;2023-04-06T17:21:38;8.80;66.00
32366;DHT22;18837;46.832;16.838;2023-04-06T17:24:06;8.80;66.60
32366;DHT22;18837;46.832;16.838;2023-04-06T17:26:33;8.80;66.80
32366;DHT22;18837;46.832;16.838;2023-04-06T17:28:59;8.80;67.20
32366;DHT22;18837;46.832;16.838;2023-04-06T17:31:25;8.80;67.20
32366;DHT22;18837;46.832;16.838;2023-04-06T17:33:51;9.30;67.70
32366;DHT22;18837;46.832;16.838;2023-04-06T17:36:17;8.80;67.40
32366;DHT22;18837;46.832;16.838;2023-04-06T17:38:43;8.80;67.40
32366;DHT22;18837;46.832;16.838;2023-04-06T17:41:13;8.80;66.50
32366;DHT22;18837;46.832;16.838;2023-04-06T17:43:40;8.80;67.40
32366;DHT22;18837;46.832;16.838;2023-04-06T17:46:06;8.70;68.10
32366;DHT22;18837;46.832;16.838;2023-04-06T17:48:32;8.70;67.90
32366;DHT22;18837;46.832;16.838;2023-04-06T17:50:58;8.70;68.50
32366;DHT22;18837;46.832;16.838;2023-04-06T17:53:46;8.70;69.00
32366;DHT22;18837;46.832;16.838;2023-04-06T17:56:30;8.70;69.80
32366;DHT22;18837;46.832;16.838;2023-04-06T17:59:01;8.70;68.50
32366;DHT22;18837;46.832;16.838;2023-04-06T18:01:27;8.70;68.50
32366;DHT22;18837;46.832;16.838;2023-04-06T18:03:53;9.20;69.40
32366;DHT22;18837;46.832;16.838;2023-04-06T18:06:19;8.70;69.80
32366;DHT22;18837;46.832;16.838;2023-04-06T18:08:47;8.60;69.30
32366;DHT22;18837;46.832;16.838;2023-04-06T18:11:15;8.60;69.90
32366;DHT22;18837;46.832;16.838;2023-04-06T18:13:46;8.60;69.40
32366;DHT22;18837;46.832;16.838;2023-04-06T18:16:13;8.60;69.40
32366;DHT22;18837;46.832;16.838;2023-04-06T18:18:39;8.60;69.60
32366;DHT22;18837;46.832;16.838;2023-04-06T18:21:05;8.60;70.10
32366;DHT22;18837;46.832;16.838;2023-04-06T18:23:34;8.60;69.70